Aeroporto :
LOGIN :

Iscrizione | Disclaimer

   EN    FR    IT 

 










Sommario :    VFR   VFR Marginale   IFR   IFR Intensivo   IFR Molto Intensivo
Visibilità : 
Base nubi : 
>= 8 km
>= 3000ft
5 / 8 km
1000 / 3000 ft
1500m / 5 km
500 / 1000 ft
800 / 1500m
200 / 500 ft
< 800m
< 200 ft
Simboli :   Temporali  Nebbia  Neve Forte  Precipitazioni Forti  Vento > 20 kt
SIGMETs :   Varie  Temporali  Ghiacco  Turbolenza  Onda orograficha  Ceneri Vulcaniche






- Altitudine del aeroporto : 156 ft
- Codice IATA : MLN


GEML - Melilla

ULTIMO METAR :
  • 220900Z 10005KT 050V140 CAVOK 25/15 Q1020

METARs OBSOLETI :
  • 220830Z 11003KT 030V150 CAVOK 24/13 Q1020
  • 220800Z 10002KT CAVOK 24/14 Q1020
  • 220730Z 07003KT 030V110 CAVOK 23/16 Q1020
  • 220700Z VRB02KT CAVOK 22/16 Q1019
  • 220630Z 35003KT CAVOK 20/15 Q1019
  • 220600Z 36002KT CAVOK 18/13 Q1019
  • 220530Z VRB02KT CAVOK 18/13 Q1019
  • 220500Z VRB02KT CAVOK 16/13 Q1019
  • 220430Z VRB02KT CAVOK 17/13 Q1019
  • 220400Z AUTO VRB02KT CAVOK 17/13 Q1019

TAF TAF GEML
Valido dal 22 a 06 ore il 23 a 06 ore UTC


220500Z 2206/2306 09006KT 9999 FEW030 TX28/2214Z TN18/2305Z



MetMap, La meteo Aeronautica in un colpo d'occhio ! - Copyright ORBIFLY Dicembre 2007 - Disclaimer

ORBIFLY MET'MAP TEAM :

Programmazione e sviluppo : Alexandra Zaïnal
Concezione : Baudouin d'Aumeries
Supporto tecnico e logistico : Manuel Goepfert
Aiuto : Marc-Olivier Méhu
Aiuto per la traduzione : Arnaldo La Scala




FONTI E CREDITI :

   NOAA